Sacramento, California
Traffic Map
Current Weather Conditions
Sacramento, California
Clear
Clear
55°
Feels Like: 55°
Wind Chill: 55° Ceiling: Unl
Heat Index: 55° Visibility: 9mi
Dew Point: 50° Wind: 8mph
Humidity: 82% Direction: 150° (SSE)
Pressure: 30.05in Gusts: 0mph
Raw Report DataKMCC 281035Z AUTO 15007KT 9SM CLR 13/10 A3005 RMK AO2
Traffic Incident Summary
Active as of:
Severity:
Category:
InformationThere was an issue retrieving the traffic information for this location. Please try a different location or try again shortly.
Advertisements
Track Severe Weather on mobile